UZB234 UTTT-URML
Flight info
| Callsign | UZB234 |
|---|---|
| Flight time | N/A |
| Altitude | 38000 |
| Route | DODUR1B DODUR Z554 DIBAD AKT/K0552F100 RIRAN RIRAN1J |
| Aircraft | A20N/M-SDE2E3FGHIRWXY/LB1 |
Departure
| Time | N/A |
|---|---|
| Airport | UTTT |
Arrival
| Time | 2026-04-22 22:09 |
|---|---|
| Airport | Makhachkala Uytash International Airport (URML) |
| Time | Latitude | Longitude | Altitude | Speed | Heading |
|---|---|---|---|---|---|
| 2026-04-22 18:49 | 41.26231 | 69.27607 | 1404 ft | 0 kts | 83° |
| 2026-04-22 18:54 | 41.26230 | 69.27597 | 1410 ft | 1 kts | 83° |
| 2026-04-22 18:54 | 41.26228 | 69.27582 | 1407 ft | 2 kts | 83° |
| 2026-04-22 18:55 | 41.26226 | 69.27562 | 1403 ft | 2 kts | 83° |
| 2026-04-22 18:55 | 41.26224 | 69.27535 | 1412 ft | 3 kts | 83° |
| 2026-04-22 18:55 | 41.26225 | 69.27506 | 1410 ft | 3 kts | 120° |
| 2026-04-22 18:55 | 41.26241 | 69.27487 | 1410 ft | 1 kts | 173° |
| 2026-04-22 18:59 | 41.26239 | 69.27488 | 1411 ft | 2 kts | 173° |
| 2026-04-22 18:59 | 41.26226 | 69.27490 | 1411 ft | 2 kts | 173° |
| 2026-04-22 19:00 | 41.26218 | 69.27491 | 1409 ft | 1 kts | 173° |
| 2026-04-22 19:00 | 41.26217 | 69.27491 | 1408 ft | 0 kts | 173° |
| 2026-04-22 19:01 | 41.26170 | 69.27500 | 1408 ft | 8 kts | 172° |
| 2026-04-22 19:01 | 41.26116 | 69.27511 | 1406 ft | 7 kts | 166° |
| 2026-04-22 19:01 | 41.26097 | 69.27550 | 1405 ft | 4 kts | 95° |
| 2026-04-22 19:01 | 41.26100 | 69.27578 | 1403 ft | 3 kts | 75° |
| 2026-04-22 19:02 | 41.26106 | 69.27614 | 1403 ft | 4 kts | 78° |
| 2026-04-22 19:02 | 41.26112 | 69.27654 | 1408 ft | 6 kts | 82° |
| 2026-04-22 19:02 | 41.26121 | 69.27756 | 1406 ft | 13 kts | 83° |
| 2026-04-22 19:02 | 41.26133 | 69.27872 | 1403 ft | 12 kts | 81° |
| 2026-04-22 19:03 | 41.26145 | 69.27970 | 1403 ft | 10 kts | 81° |
| 2026-04-22 19:03 | 41.26154 | 69.28051 | 1406 ft | 8 kts | 81° |
| 2026-04-22 19:03 | 41.26162 | 69.28115 | 1405 ft | 6 kts | 81° |
| 2026-04-22 19:03 | 41.26167 | 69.28167 | 1410 ft | 7 kts | 82° |
| 2026-04-22 19:04 | 41.26179 | 69.28282 | 1403 ft | 18 kts | 83° |
| 2026-04-22 19:04 | 41.26189 | 69.28442 | 1403 ft | 17 kts | 89° |
| 2026-04-22 19:04 | 41.26185 | 69.28585 | 1405 ft | 14 kts | 94° |
| 2026-04-22 19:04 | 41.26181 | 69.28705 | 1410 ft | 12 kts | 90° |
| 2026-04-22 19:05 | 41.26185 | 69.28835 | 1407 ft | 23 kts | 86° |
| 2026-04-22 19:05 | 41.26198 | 69.29138 | 1410 ft | 36 kts | 88° |
| 2026-04-22 19:05 | 41.26209 | 69.29454 | 1410 ft | 32 kts | 87° |
| 2026-04-22 19:05 | 41.26216 | 69.29665 | 1403 ft | 12 kts | 88° |
| 2026-04-22 19:06 | 41.26219 | 69.29768 | 1405 ft | 10 kts | 88° |
| 2026-04-22 19:06 | 41.26221 | 69.29851 | 1409 ft | 8 kts | 88° |
| 2026-04-22 19:06 | 41.26223 | 69.29915 | 1410 ft | 6 kts | 88° |
| 2026-04-22 19:07 | 41.26224 | 69.29944 | 1410 ft | 0 kts | 89° |
| 2026-04-22 19:10 | 41.26223 | 69.29945 | 1403 ft | 1 kts | 91° |
| 2026-04-22 19:10 | 41.26204 | 69.29995 | 1407 ft | 0 kts | 130° |
| 2026-04-22 19:11 | 41.26204 | 69.29996 | 1407 ft | 0 kts | 130° |
| 2026-04-22 19:12 | 41.26202 | 69.29998 | 1407 ft | 3 kts | 138° |
| 2026-04-22 19:12 | 41.26172 | 69.30028 | 1413 ft | 6 kts | 137° |
| 2026-04-22 19:13 | 41.26124 | 69.30073 | 1410 ft | 11 kts | 160° |
| 2026-04-22 19:13 | 41.26069 | 69.30023 | 1409 ft | 10 kts | 243° |
| 2026-04-22 19:13 | 41.26043 | 69.29913 | 1403 ft | 15 kts | 261° |
| 2026-04-22 19:13 | 41.26025 | 69.29759 | 1403 ft | 17 kts | 261° |
| 2026-04-22 19:14 | 41.26006 | 69.29610 | 1409 ft | 15 kts | 261° |
| 2026-04-22 19:14 | 41.25991 | 69.29473 | 1407 ft | 18 kts | 262° |
| 2026-04-22 19:14 | 41.25972 | 69.29301 | 1403 ft | 19 kts | 261° |
| 2026-04-22 19:14 | 41.25954 | 69.29139 | 1403 ft | 17 kts | 261° |
| 2026-04-22 19:15 | 41.25943 | 69.29042 | 1403 ft | 15 kts | 263° |
| 2026-04-22 19:15 | 41.25927 | 69.28845 | 1404 ft | 19 kts | 264° |
| 2026-04-22 19:15 | 41.25909 | 69.28670 | 1403 ft | 18 kts | 262° |
| 2026-04-22 19:15 | 41.25892 | 69.28512 | 1408 ft | 16 kts | 262° |
| 2026-04-22 19:16 | 41.25876 | 69.28376 | 1407 ft | 14 kts | 261° |
| 2026-04-22 19:16 | 41.25862 | 69.28249 | 1410 ft | 13 kts | 261° |
| 2026-04-22 19:16 | 41.25849 | 69.28136 | 1411 ft | 11 kts | 261° |
| 2026-04-22 19:16 | 41.25838 | 69.28041 | 1405 ft | 10 kts | 261° |
| 2026-04-22 19:17 | 41.25816 | 69.27846 | 1403 ft | 31 kts | 261° |
| 2026-04-22 19:17 | 41.25783 | 69.27568 | 1405 ft | 29 kts | 261° |
| 2026-04-22 19:17 | 41.25753 | 69.27317 | 1403 ft | 26 kts | 260° |
| 2026-04-22 19:17 | 41.25726 | 69.27099 | 1403 ft | 22 kts | 263° |
| 2026-04-22 19:18 | 41.25706 | 69.26893 | 1403 ft | 24 kts | 262° |
| 2026-04-22 19:18 | 41.25684 | 69.26677 | 1405 ft | 23 kts | 262° |
| 2026-04-22 19:18 | 41.25663 | 69.26479 | 1403 ft | 20 kts | 262° |
| 2026-04-22 19:18 | 41.25644 | 69.26307 | 1409 ft | 17 kts | 261° |
| 2026-04-22 19:19 | 41.25627 | 69.26157 | 1405 ft | 17 kts | 261° |
| 2026-04-22 19:19 | 41.25605 | 69.25966 | 1412 ft | 21 kts | 261° |
| 2026-04-22 19:19 | 41.25612 | 69.25818 | 1405 ft | 11 kts | 283° |
| 2026-04-22 19:19 | 41.25608 | 69.25786 | 1405 ft | 0 kts | 200° |
| 2026-04-22 19:20 | 41.25600 | 69.25791 | 1409 ft | 4 kts | 152° |
| 2026-04-22 19:20 | 41.25582 | 69.25827 | 1413 ft | 5 kts | 118° |
| 2026-04-22 19:20 | 41.25585 | 69.25846 | 1410 ft | 1 kts | 66° |
| 2026-04-22 19:20 | 41.25587 | 69.25851 | 1411 ft | 0 kts | 65° |
| 2026-04-22 19:21 | 41.25597 | 69.25885 | 1404 ft | 9 kts | 73° |
| 2026-04-22 19:21 | 41.25628 | 69.26143 | 1405 ft | 58 kts | 81° |
| 2026-04-22 19:21 | 41.25715 | 69.26931 | 1404 ft | 112 kts | 82° |
| 2026-04-22 19:22 | 41.25847 | 69.28151 | 1412 ft | 152 kts | 82° |
| 2026-04-22 19:22 | 41.26010 | 69.29643 | 1612 ft | 170 kts | 82° |
| 2026-04-22 19:22 | 41.26213 | 69.31186 | 2236 ft | 167 kts | 81° |
| 2026-04-22 19:22 | 41.26424 | 69.32721 | 2720 ft | 175 kts | 83° |
| 2026-04-22 19:23 | 41.26613 | 69.34366 | 3138 ft | 183 kts | 84° |
| 2026-04-22 19:23 | 41.26798 | 69.36112 | 3401 ft | 200 kts | 85° |
| 2026-04-22 19:23 | 41.26995 | 69.38032 | 3623 ft | 217 kts | 84° |
| 2026-04-22 19:23 | 41.27204 | 69.40051 | 4204 ft | 221 kts | 84° |
| 2026-04-22 19:24 | 41.27419 | 69.42081 | 4935 ft | 222 kts | 85° |
| 2026-04-22 19:24 | 41.27636 | 69.44166 | 5471 ft | 236 kts | 85° |
| 2026-04-22 19:24 | 41.27871 | 69.46436 | 5841 ft | 258 kts | 85° |
| 2026-04-22 19:24 | 41.28125 | 69.48875 | 6359 ft | 274 kts | 85° |
| 2026-04-22 19:25 | 41.28110 | 69.51397 | 7118 ft | 273 kts | 108° |
| 2026-04-22 19:25 | 41.27285 | 69.53645 | 7844 ft | 273 kts | 135° |
| 2026-04-22 19:25 | 41.25795 | 69.55142 | 8600 ft | 269 kts | 162° |
| 2026-04-22 19:25 | 41.24009 | 69.55559 | 9390 ft | 263 kts | 189° |
| 2026-04-22 19:26 | 41.22277 | 69.54881 | 9849 ft | 258 kts | 214° |
| 2026-04-22 19:26 | 41.20970 | 69.53302 | 10072 ft | 259 kts | 233° |
| 2026-04-22 19:26 | 41.19926 | 69.51223 | 10286 ft | 282 kts | 240° |
| 2026-04-22 19:26 | 41.18923 | 69.48867 | 10572 ft | 304 kts | 241° |
| 2026-04-22 19:27 | 41.17945 | 69.46269 | 10905 ft | 322 kts | 248° |
| 2026-04-22 19:27 | 41.17262 | 69.43419 | 11662 ft | 327 kts | 256° |
| 2026-04-22 19:27 | 41.16888 | 69.40432 | 12463 ft | 330 kts | 260° |
| 2026-04-22 19:27 | 41.16572 | 69.37397 | 13237 ft | 334 kts | 259° |
| 2026-04-22 19:28 | 41.16234 | 69.34324 | 13953 ft | 338 kts | 259° |
| 2026-04-22 19:28 | 41.15887 | 69.31226 | 14622 ft | 341 kts | 259° |
| 2026-04-22 19:28 | 41.15534 | 69.28092 | 15272 ft | 345 kts | 259° |
| 2026-04-22 19:28 | 41.15178 | 69.24932 | 15919 ft | 348 kts | 259° |
| 2026-04-22 19:29 | 41.14818 | 69.21734 | 16580 ft | 352 kts | 259° |
| 2026-04-22 19:29 | 41.14191 | 69.18604 | 17205 ft | 352 kts | 245° |
| 2026-04-22 19:29 | 41.12935 | 69.15868 | 17824 ft | 354 kts | 230° |
| 2026-04-22 19:29 | 41.11111 | 69.13666 | 18415 ft | 359 kts | 215° |
| 2026-04-22 19:30 | 41.09615 | 69.12594 | 18791 ft | 363 kts | 205° |
| 2026-04-22 19:30 | 41.06309 | 69.11699 | 19547 ft | 375 kts | 184° |
| 2026-04-22 19:30 | 41.03678 | 69.12048 | 20096 ft | 382 kts | 177° |
| 2026-04-22 19:30 | 41.01039 | 69.12548 | 20637 ft | 385 kts | 176° |
| 2026-04-22 19:31 | 40.98374 | 69.13056 | 21197 ft | 388 kts | 176° |
| 2026-04-22 19:31 | 40.95698 | 69.13534 | 21740 ft | 388 kts | 180° |
| 2026-04-22 19:31 | 40.93016 | 69.13409 | 22264 ft | 384 kts | 193° |
| 2026-04-22 19:31 | 40.90461 | 69.12457 | 22799 ft | 382 kts | 205° |
| 2026-04-22 19:32 | 40.88139 | 69.10768 | 23318 ft | 382 kts | 214° |
| 2026-04-22 19:32 | 40.85925 | 69.08882 | 23788 ft | 384 kts | 214° |
| 2026-04-22 19:32 | 40.83699 | 69.06891 | 24240 ft | 386 kts | 220° |
| 2026-04-22 19:32 | 40.81798 | 69.04392 | 24678 ft | 387 kts | 231° |
| 2026-04-22 19:33 | 40.80350 | 69.01383 | 25094 ft | 392 kts | 242° |
| 2026-04-22 19:33 | 40.79430 | 68.97978 | 25498 ft | 398 kts | 254° |
| 2026-04-22 19:33 | 40.79105 | 68.94315 | 25898 ft | 407 kts | 266° |
| 2026-04-22 19:33 | 40.79406 | 68.90561 | 26274 ft | 415 kts | 275° |
| 2026-04-22 19:34 | 40.79926 | 68.86803 | 26649 ft | 419 kts | 277° |
| 2026-04-22 19:34 | 40.80704 | 68.83065 | 27025 ft | 426 kts | 283° |
| 2026-04-22 19:34 | 40.81817 | 68.79401 | 27385 ft | 434 kts | 289° |
| 2026-04-22 19:34 | 40.83260 | 68.75859 | 27735 ft | 441 kts | 294° |
| 2026-04-22 19:35 | 40.84824 | 68.72361 | 28056 ft | 443 kts | 294° |
| 2026-04-22 19:35 | 40.86364 | 68.68883 | 28387 ft | 445 kts | 294° |
| 2026-04-22 19:35 | 40.87420 | 68.66488 | 28603 ft | 447 kts | 294° |
| 2026-04-22 19:35 | 40.89733 | 68.61933 | 28998 ft | 456 kts | 300° |
| 2026-04-22 19:36 | 40.91659 | 68.58572 | 29286 ft | 459 kts | 300° |
| 2026-04-22 19:36 | 40.93580 | 68.55197 | 29576 ft | 461 kts | 300° |
| 2026-04-22 19:36 | 40.95508 | 68.51798 | 29864 ft | 463 kts | 300° |
| 2026-04-22 19:36 | 40.97445 | 68.48378 | 30133 ft | 465 kts | 300° |
| 2026-04-22 19:37 | 40.99388 | 68.44946 | 30416 ft | 466 kts | 300° |
| 2026-04-22 19:37 | 41.01330 | 68.41512 | 30708 ft | 467 kts | 299° |
| 2026-04-22 19:37 | 41.03280 | 68.38062 | 30964 ft | 468 kts | 299° |
| 2026-04-22 19:37 | 41.05237 | 68.34593 | 31167 ft | 470 kts | 299° |
| 2026-04-22 19:38 | 41.07191 | 68.31126 | 31421 ft | 470 kts | 299° |
| 2026-04-22 19:38 | 41.09147 | 68.27655 | 31720 ft | 469 kts | 299° |
| 2026-04-22 19:38 | 41.11095 | 68.24193 | 32016 ft | 467 kts | 299° |
| 2026-04-22 19:38 | 41.13037 | 68.20738 | 32298 ft | 467 kts | 299° |
| 2026-04-22 19:39 | 41.14947 | 68.17334 | 32567 ft | 466 kts | 299° |
| 2026-04-22 19:39 | 41.16876 | 68.13893 | 32834 ft | 465 kts | 299° |
| 2026-04-22 19:39 | 41.18805 | 68.10449 | 33102 ft | 464 kts | 299° |
| 2026-04-22 19:39 | 41.20723 | 68.07019 | 33366 ft | 463 kts | 298° |
| 2026-04-22 19:40 | 41.22640 | 68.03587 | 33619 ft | 462 kts | 298° |
| 2026-04-22 19:40 | 41.24550 | 68.00164 | 33872 ft | 461 kts | 298° |
| 2026-04-22 19:40 | 41.26369 | 67.96690 | 34169 ft | 451 kts | 292° |
| 2026-04-22 19:40 | 41.27791 | 67.93083 | 34829 ft | 431 kts | 286° |
| 2026-04-22 19:41 | 41.28850 | 67.89411 | 35271 ft | 419 kts | 279° |
| 2026-04-22 19:41 | 41.29553 | 67.85684 | 35510 ft | 413 kts | 274° |
| 2026-04-22 19:41 | 41.30119 | 67.81936 | 35725 ft | 413 kts | 274° |
| 2026-04-22 19:41 | 41.30699 | 67.78193 | 35933 ft | 413 kts | 274° |
| 2026-04-22 19:42 | 41.31282 | 67.74448 | 36148 ft | 413 kts | 274° |
| 2026-04-22 19:42 | 41.31856 | 67.70756 | 36353 ft | 412 kts | 274° |
| 2026-04-22 19:42 | 41.32435 | 67.67019 | 36552 ft | 412 kts | 274° |
| 2026-04-22 19:42 | 41.33011 | 67.63286 | 36739 ft | 411 kts | 274° |
| 2026-04-22 19:43 | 41.34156 | 67.55832 | 37104 ft | 411 kts | 274° |
| 2026-04-22 19:43 | 41.34725 | 67.52109 | 37278 ft | 411 kts | 274° |
| 2026-04-22 19:43 | 41.35294 | 67.48387 | 37442 ft | 410 kts | 274° |
| 2026-04-22 19:44 | 41.35860 | 67.44669 | 37606 ft | 410 kts | 274° |
| 2026-04-22 19:44 | 41.36425 | 67.40950 | 37755 ft | 410 kts | 274° |
| 2026-04-22 19:44 | 41.36989 | 67.37232 | 37898 ft | 410 kts | 274° |
| 2026-04-22 19:44 | 41.37552 | 67.33509 | 37930 ft | 410 kts | 274° |
| 2026-04-22 19:45 | 41.38674 | 67.26075 | 37935 ft | 409 kts | 274° |
| 2026-04-22 19:45 | 41.39782 | 67.18688 | 37932 ft | 410 kts | 274° |
| 2026-04-22 19:46 | 41.40900 | 67.11201 | 37929 ft | 410 kts | 274° |
| 2026-04-22 19:46 | 41.42004 | 67.03782 | 37926 ft | 410 kts | 274° |
| 2026-04-22 19:47 | 41.43111 | 66.96301 | 37930 ft | 411 kts | 274° |
| 2026-04-22 19:47 | 41.44214 | 66.88809 | 37931 ft | 412 kts | 274° |
| 2026-04-22 19:48 | 41.45315 | 66.81304 | 37928 ft | 412 kts | 274° |
| 2026-04-22 19:48 | 41.46406 | 66.73829 | 37933 ft | 413 kts | 274° |
| 2026-04-22 19:49 | 41.47498 | 66.66305 | 37932 ft | 413 kts | 274° |
| 2026-04-22 19:49 | 41.48591 | 66.58769 | 37937 ft | 414 kts | 274° |
| 2026-04-22 19:50 | 41.49705 | 66.51227 | 37934 ft | 415 kts | 274° |
| 2026-04-22 19:50 | 41.50820 | 66.43681 | 37930 ft | 415 kts | 274° |
| 2026-04-22 19:51 | 41.51928 | 66.36125 | 37930 ft | 415 kts | 274° |
| 2026-04-22 19:51 | 41.53032 | 66.28547 | 37930 ft | 415 kts | 274° |
| 2026-04-22 19:52 | 41.54132 | 66.20964 | 37929 ft | 416 kts | 274° |
| 2026-04-22 19:52 | 41.55218 | 66.13439 | 37932 ft | 416 kts | 274° |
| 2026-04-22 19:53 | 41.56307 | 66.05849 | 37934 ft | 416 kts | 274° |
| 2026-04-22 19:53 | 41.57393 | 65.98254 | 37931 ft | 417 kts | 274° |
| 2026-04-22 19:54 | 41.58474 | 65.90653 | 37933 ft | 417 kts | 274° |
| 2026-04-22 19:54 | 41.59551 | 65.83039 | 37935 ft | 417 kts | 274° |
| 2026-04-22 19:55 | 41.60623 | 65.75408 | 37934 ft | 418 kts | 274° |
| 2026-04-22 19:55 | 41.61511 | 65.69062 | 37933 ft | 418 kts | 274° |
| 2026-04-22 19:56 | 41.62576 | 65.61417 | 37934 ft | 418 kts | 274° |
| 2026-04-22 19:56 | 41.63636 | 65.53768 | 37936 ft | 418 kts | 274° |
| 2026-04-22 19:57 | 41.64690 | 65.46121 | 37939 ft | 418 kts | 274° |
| 2026-04-22 19:57 | 41.65740 | 65.38464 | 37935 ft | 418 kts | 274° |
| 2026-04-22 19:58 | 41.66787 | 65.30795 | 37939 ft | 418 kts | 274° |
| 2026-04-22 19:58 | 41.67821 | 65.23173 | 37939 ft | 418 kts | 274° |
| 2026-04-22 20:00 | 41.71423 | 64.96327 | 37932 ft | 418 kts | 273° |
| 2026-04-22 20:01 | 41.72434 | 64.88696 | 37930 ft | 418 kts | 273° |
| 2026-04-22 20:01 | 41.73445 | 64.81029 | 37936 ft | 418 kts | 273° |
| 2026-04-22 20:02 | 41.74452 | 64.73351 | 37934 ft | 418 kts | 273° |
| 2026-04-22 20:02 | 41.75456 | 64.65635 | 37936 ft | 423 kts | 273° |
| 2026-04-22 20:03 | 41.76740 | 64.57830 | 37933 ft | 435 kts | 278° |
| 2026-04-22 20:03 | 41.78361 | 64.49976 | 37941 ft | 440 kts | 278° |
| 2026-04-22 20:04 | 41.79985 | 64.42037 | 37935 ft | 443 kts | 278° |
| 2026-04-22 20:04 | 41.81612 | 64.34028 | 37933 ft | 446 kts | 278° |
| 2026-04-22 20:05 | 41.83238 | 64.25998 | 37931 ft | 446 kts | 278° |
| 2026-04-22 20:05 | 41.84858 | 64.17959 | 37932 ft | 447 kts | 278° |
| 2026-04-22 20:06 | 41.86467 | 64.09944 | 37931 ft | 447 kts | 278° |
| 2026-04-22 20:06 | 41.88081 | 64.01871 | 37927 ft | 448 kts | 278° |
| 2026-04-22 20:07 | 41.89691 | 63.93785 | 37926 ft | 448 kts | 278° |
| 2026-04-22 20:07 | 41.91295 | 63.85697 | 37926 ft | 448 kts | 278° |
| 2026-04-22 20:08 | 41.92894 | 63.77601 | 37926 ft | 449 kts | 278° |
| 2026-04-22 20:08 | 41.94478 | 63.69548 | 37927 ft | 449 kts | 278° |
| 2026-04-22 20:09 | 41.96067 | 63.61437 | 37925 ft | 449 kts | 278° |
| 2026-04-22 20:09 | 41.97652 | 63.53314 | 37922 ft | 449 kts | 278° |
| 2026-04-22 20:10 | 41.99232 | 63.45182 | 37925 ft | 449 kts | 278° |
| 2026-04-22 20:10 | 42.00804 | 63.37056 | 37923 ft | 449 kts | 278° |
| 2026-04-22 20:11 | 42.02374 | 63.28908 | 37923 ft | 449 kts | 278° |
| 2026-04-22 20:11 | 42.03938 | 63.20762 | 37921 ft | 449 kts | 278° |
| 2026-04-22 20:12 | 42.05495 | 63.12614 | 37925 ft | 449 kts | 278° |
| 2026-04-22 20:12 | 42.07044 | 63.04475 | 37919 ft | 450 kts | 278° |
| 2026-04-22 20:13 | 42.08582 | 62.96300 | 37922 ft | 449 kts | 278° |
| 2026-04-22 20:13 | 42.10042 | 62.88126 | 37926 ft | 449 kts | 278° |
| 2026-04-22 20:14 | 42.11495 | 62.79953 | 37923 ft | 449 kts | 278° |
| 2026-04-22 20:14 | 42.12990 | 62.71759 | 37924 ft | 450 kts | 278° |
| 2026-04-22 20:15 | 42.14516 | 62.63641 | 37924 ft | 450 kts | 279° |
| 2026-04-22 20:15 | 42.16047 | 62.55446 | 37925 ft | 450 kts | 278° |
| 2026-04-22 20:16 | 42.17564 | 62.47261 | 37926 ft | 450 kts | 278° |
| 2026-04-22 20:16 | 42.19075 | 62.39051 | 37928 ft | 450 kts | 278° |
| 2026-04-22 20:17 | 42.20577 | 62.30858 | 37932 ft | 450 kts | 278° |
| 2026-04-22 20:17 | 42.22075 | 62.22646 | 37928 ft | 450 kts | 278° |
| 2026-04-22 20:18 | 42.23566 | 62.14434 | 37934 ft | 450 kts | 278° |
| 2026-04-22 20:18 | 42.25041 | 62.06280 | 37937 ft | 450 kts | 278° |
| 2026-04-22 20:19 | 42.26521 | 61.98059 | 37932 ft | 450 kts | 278° |
| 2026-04-22 20:19 | 42.27997 | 61.89828 | 37937 ft | 450 kts | 278° |
| 2026-04-22 20:20 | 42.29463 | 61.81612 | 37934 ft | 450 kts | 278° |
| 2026-04-22 20:20 | 42.30922 | 61.73400 | 37935 ft | 449 kts | 278° |
| 2026-04-22 20:21 | 42.32375 | 61.65184 | 37937 ft | 449 kts | 278° |
| 2026-04-22 20:21 | 42.33823 | 61.56961 | 37936 ft | 449 kts | 278° |
| 2026-04-22 20:22 | 42.35254 | 61.48800 | 37933 ft | 449 kts | 278° |
| 2026-04-22 20:22 | 42.36688 | 61.40581 | 37932 ft | 448 kts | 278° |
| 2026-04-22 20:23 | 42.38113 | 61.32380 | 37938 ft | 448 kts | 278° |
| 2026-04-22 20:23 | 42.39530 | 61.24180 | 37942 ft | 448 kts | 278° |
| 2026-04-22 20:24 | 42.40943 | 61.15976 | 37939 ft | 448 kts | 278° |
| 2026-04-22 20:24 | 42.42349 | 61.07770 | 37938 ft | 447 kts | 278° |
| 2026-04-22 20:25 | 42.43749 | 60.99559 | 37939 ft | 447 kts | 278° |
| 2026-04-22 20:25 | 42.45144 | 60.91338 | 37936 ft | 447 kts | 278° |
| 2026-04-22 20:26 | 42.46534 | 60.83114 | 37933 ft | 447 kts | 278° |
| 2026-04-22 20:26 | 42.47917 | 60.74892 | 37932 ft | 447 kts | 278° |
| 2026-04-22 20:27 | 42.49285 | 60.66715 | 37932 ft | 448 kts | 278° |
| 2026-04-22 20:27 | 42.50656 | 60.58485 | 37935 ft | 447 kts | 278° |
| 2026-04-22 20:28 | 42.52020 | 60.50261 | 37934 ft | 447 kts | 278° |
| 2026-04-22 20:28 | 42.53379 | 60.42026 | 37931 ft | 447 kts | 278° |
| 2026-04-22 20:29 | 42.54732 | 60.33788 | 37931 ft | 448 kts | 278° |
| 2026-04-22 20:29 | 42.56079 | 60.25547 | 37931 ft | 448 kts | 278° |
| 2026-04-22 20:30 | 42.57421 | 60.17296 | 37926 ft | 448 kts | 278° |
| 2026-04-22 20:30 | 42.58758 | 60.09033 | 37932 ft | 448 kts | 278° |
| 2026-04-22 20:31 | 42.60090 | 60.00770 | 37928 ft | 448 kts | 278° |
| 2026-04-22 20:31 | 42.61414 | 59.92505 | 37927 ft | 448 kts | 278° |
| 2026-04-22 20:32 | 42.62733 | 59.84238 | 37930 ft | 448 kts | 278° |
| 2026-04-22 20:32 | 42.64047 | 59.75957 | 37933 ft | 448 kts | 278° |
| 2026-04-22 20:33 | 42.65356 | 59.67673 | 37928 ft | 449 kts | 278° |
| 2026-04-22 20:33 | 42.66651 | 59.59430 | 37923 ft | 449 kts | 278° |
| 2026-04-22 20:34 | 42.67948 | 59.51137 | 37930 ft | 449 kts | 278° |
| 2026-04-22 20:34 | 42.69240 | 59.42831 | 37929 ft | 449 kts | 278° |
| 2026-04-22 20:35 | 42.70527 | 59.34521 | 37922 ft | 449 kts | 278° |
| 2026-04-22 20:35 | 42.71808 | 59.26200 | 37927 ft | 449 kts | 278° |
| 2026-04-22 20:36 | 42.73085 | 59.17884 | 37934 ft | 449 kts | 278° |
| 2026-04-22 20:36 | 42.74352 | 59.09609 | 37933 ft | 449 kts | 278° |
| 2026-04-22 20:37 | 42.75588 | 59.01286 | 37929 ft | 449 kts | 278° |
| 2026-04-22 20:37 | 42.76806 | 58.92951 | 37929 ft | 449 kts | 278° |
| 2026-04-22 20:38 | 42.78018 | 58.84610 | 37933 ft | 449 kts | 278° |
| 2026-04-22 20:38 | 42.79226 | 58.76265 | 37936 ft | 449 kts | 278° |
| 2026-04-22 20:39 | 42.80229 | 58.69335 | 37933 ft | 449 kts | 278° |
| 2026-04-22 20:39 | 42.81431 | 58.60978 | 37935 ft | 449 kts | 278° |
| 2026-04-22 20:40 | 42.82619 | 58.52673 | 37933 ft | 437 kts | 278° |
| 2026-04-22 20:40 | 42.83191 | 58.48675 | 37935 ft | 423 kts | 278° |
| 2026-04-22 20:40 | 42.83746 | 58.44769 | 37938 ft | 420 kts | 277° |
| 2026-04-22 20:41 | 42.84854 | 58.36893 | 37937 ft | 427 kts | 277° |
| 2026-04-22 20:41 | 42.85971 | 58.28942 | 37938 ft | 426 kts | 277° |
| 2026-04-22 20:42 | 42.87081 | 58.21010 | 37942 ft | 426 kts | 277° |
| 2026-04-22 20:42 | 42.88186 | 58.13067 | 37942 ft | 426 kts | 277° |
| 2026-04-22 20:43 | 42.89276 | 58.05186 | 37943 ft | 426 kts | 277° |
| 2026-04-22 20:43 | 42.90369 | 57.97244 | 37950 ft | 426 kts | 277° |
| 2026-04-22 20:44 | 42.91456 | 57.89307 | 37946 ft | 425 kts | 277° |
| 2026-04-22 20:44 | 42.92539 | 57.81357 | 37946 ft | 425 kts | 277° |
| 2026-04-22 20:45 | 42.93614 | 57.73419 | 37949 ft | 425 kts | 277° |
| 2026-04-22 20:45 | 42.94684 | 57.65475 | 37949 ft | 425 kts | 277° |
| 2026-04-22 20:46 | 42.96278 | 57.53557 | 37954 ft | 425 kts | 277° |
| 2026-04-22 20:46 | 42.97328 | 57.45655 | 37951 ft | 425 kts | 277° |
| 2026-04-22 20:47 | 42.98379 | 57.37698 | 37951 ft | 426 kts | 277° |
| 2026-04-22 20:47 | 42.99424 | 57.29744 | 37954 ft | 426 kts | 277° |
| 2026-04-22 20:48 | 43.00465 | 57.21777 | 37957 ft | 426 kts | 277° |
| 2026-04-22 20:48 | 43.01500 | 57.13810 | 37959 ft | 426 kts | 277° |
| 2026-04-22 20:49 | 43.02530 | 57.05836 | 37962 ft | 426 kts | 277° |
| 2026-04-22 20:49 | 43.03556 | 56.97848 | 37963 ft | 426 kts | 277° |
| 2026-04-22 20:50 | 43.04574 | 56.89874 | 37967 ft | 426 kts | 276° |
| 2026-04-22 20:50 | 43.05588 | 56.81888 | 37965 ft | 426 kts | 276° |
| 2026-04-22 20:51 | 43.06595 | 56.73903 | 37970 ft | 426 kts | 276° |
| 2026-04-22 20:51 | 43.07597 | 56.65916 | 37972 ft | 426 kts | 276° |
| 2026-04-22 20:52 | 43.08586 | 56.57987 | 37976 ft | 425 kts | 276° |
| 2026-04-22 20:52 | 43.09576 | 56.50004 | 37973 ft | 425 kts | 276° |
| 2026-04-22 20:53 | 43.10561 | 56.42017 | 37976 ft | 425 kts | 276° |
| 2026-04-22 20:53 | 43.11539 | 56.34031 | 37977 ft | 425 kts | 276° |
| 2026-04-22 20:54 | 43.12511 | 56.26047 | 37977 ft | 425 kts | 276° |
| 2026-04-22 20:54 | 43.13478 | 56.18061 | 37971 ft | 424 kts | 276° |
| 2026-04-22 20:55 | 43.14431 | 56.10141 | 37971 ft | 424 kts | 276° |
| 2026-04-22 20:55 | 43.15389 | 56.02162 | 37969 ft | 424 kts | 276° |
| 2026-04-22 20:56 | 43.16491 | 55.94229 | 37969 ft | 425 kts | 279° |
| 2026-04-22 20:56 | 43.17870 | 55.86326 | 37969 ft | 425 kts | 280° |
| 2026-04-22 20:57 | 43.19212 | 55.78426 | 37973 ft | 425 kts | 279° |
| 2026-04-22 20:57 | 43.20509 | 55.70564 | 37974 ft | 425 kts | 279° |
| 2026-04-22 20:58 | 43.21803 | 55.62641 | 37973 ft | 425 kts | 279° |
| 2026-04-22 20:58 | 43.23088 | 55.54739 | 37975 ft | 425 kts | 279° |
| 2026-04-22 20:59 | 43.24370 | 55.46819 | 37973 ft | 425 kts | 279° |
| 2026-04-22 20:59 | 43.25635 | 55.38968 | 37981 ft | 425 kts | 279° |
| 2026-04-22 21:00 | 43.26906 | 55.31049 | 37981 ft | 425 kts | 279° |
| 2026-04-22 21:00 | 43.28170 | 55.23129 | 37984 ft | 424 kts | 279° |
| 2026-04-22 21:01 | 43.29429 | 55.15210 | 37982 ft | 424 kts | 279° |
| 2026-04-22 21:01 | 43.30680 | 55.07296 | 37981 ft | 424 kts | 279° |
| 2026-04-22 21:02 | 43.31925 | 54.99385 | 37974 ft | 423 kts | 279° |
| 2026-04-22 21:02 | 43.33151 | 54.91563 | 37975 ft | 421 kts | 279° |
| 2026-04-22 21:03 | 43.34376 | 54.83705 | 37973 ft | 421 kts | 279° |
| 2026-04-22 21:03 | 43.35596 | 54.75836 | 37972 ft | 420 kts | 279° |
| 2026-04-22 21:04 | 43.36811 | 54.67971 | 37971 ft | 420 kts | 279° |
| 2026-04-22 21:04 | 43.38018 | 54.60118 | 37975 ft | 420 kts | 279° |
| 2026-04-22 21:05 | 43.39218 | 54.52264 | 37962 ft | 420 kts | 279° |
| 2026-04-22 21:05 | 43.40414 | 54.44406 | 37968 ft | 419 kts | 279° |
| 2026-04-22 21:06 | 43.41596 | 54.36604 | 37970 ft | 419 kts | 278° |
| 2026-04-22 21:06 | 43.42778 | 54.28755 | 37963 ft | 419 kts | 278° |
| 2026-04-22 21:07 | 43.43955 | 54.20905 | 37960 ft | 419 kts | 278° |
| 2026-04-22 21:07 | 43.45128 | 54.13043 | 37963 ft | 419 kts | 278° |
| 2026-04-22 21:08 | 43.46296 | 54.05179 | 37962 ft | 419 kts | 278° |
| 2026-04-22 21:08 | 43.47458 | 53.97314 | 37965 ft | 419 kts | 278° |
| 2026-04-22 21:09 | 43.48607 | 53.89491 | 37955 ft | 419 kts | 278° |
| 2026-04-22 21:09 | 43.49762 | 53.81602 | 37957 ft | 420 kts | 278° |
| 2026-04-22 21:10 | 43.50911 | 53.73712 | 37961 ft | 420 kts | 278° |
| 2026-04-22 21:10 | 43.52044 | 53.65824 | 37964 ft | 420 kts | 278° |
| 2026-04-22 21:11 | 43.53174 | 53.57924 | 37962 ft | 420 kts | 278° |
| 2026-04-22 21:11 | 43.54299 | 53.50028 | 37967 ft | 420 kts | 278° |
| 2026-04-22 21:12 | 43.55418 | 53.42137 | 37968 ft | 419 kts | 278° |
| 2026-04-22 21:12 | 43.56531 | 53.34253 | 37967 ft | 419 kts | 278° |
| 2026-04-22 21:13 | 43.57639 | 53.26360 | 37972 ft | 419 kts | 278° |
| 2026-04-22 21:13 | 43.58741 | 53.18531 | 37977 ft | 418 kts | 278° |
| 2026-04-22 21:14 | 43.59847 | 53.10649 | 37973 ft | 418 kts | 278° |
| 2026-04-22 21:14 | 43.60944 | 53.02780 | 37972 ft | 417 kts | 278° |
| 2026-04-22 21:15 | 43.62035 | 52.94906 | 37970 ft | 417 kts | 278° |
| 2026-04-22 21:15 | 43.63117 | 52.87059 | 37972 ft | 416 kts | 278° |
| 2026-04-22 21:16 | 43.64186 | 52.79263 | 37971 ft | 415 kts | 278° |
| 2026-04-22 21:16 | 43.65255 | 52.71425 | 37968 ft | 415 kts | 278° |
| 2026-04-22 21:17 | 43.66320 | 52.63557 | 37972 ft | 420 kts | 277° |
| 2026-04-22 21:17 | 43.67390 | 52.55554 | 37966 ft | 428 kts | 277° |
| 2026-04-22 21:18 | 43.68474 | 52.47406 | 37969 ft | 433 kts | 277° |
| 2026-04-22 21:18 | 43.69567 | 52.39182 | 37970 ft | 437 kts | 278° |
| 2026-04-22 21:19 | 43.70696 | 52.31075 | 37977 ft | 419 kts | 278° |
| 2026-04-22 21:19 | 43.71244 | 52.27174 | 37968 ft | 407 kts | 278° |
| 2026-04-22 21:19 | 43.71778 | 52.23327 | 37972 ft | 409 kts | 278° |
| 2026-04-22 21:20 | 43.72848 | 52.15521 | 37973 ft | 415 kts | 278° |
| 2026-04-22 21:20 | 43.73918 | 52.07687 | 37968 ft | 413 kts | 277° |
| 2026-04-22 21:21 | 43.74980 | 51.99872 | 37968 ft | 413 kts | 277° |
| 2026-04-22 21:21 | 43.76031 | 51.92102 | 37961 ft | 413 kts | 277° |
| 2026-04-22 21:22 | 43.77081 | 51.84290 | 37963 ft | 412 kts | 277° |
| 2026-04-22 21:22 | 43.78124 | 51.76485 | 37964 ft | 412 kts | 277° |
| 2026-04-22 21:23 | 43.79161 | 51.68685 | 37960 ft | 412 kts | 277° |
| 2026-04-22 21:23 | 43.80194 | 51.60875 | 37956 ft | 412 kts | 277° |
| 2026-04-22 21:24 | 43.81213 | 51.53126 | 37958 ft | 412 kts | 277° |
| 2026-04-22 21:24 | 43.82233 | 51.45325 | 37958 ft | 411 kts | 277° |
| 2026-04-22 21:25 | 43.83248 | 51.37525 | 37962 ft | 411 kts | 277° |
| 2026-04-22 21:25 | 43.84257 | 51.29723 | 37962 ft | 411 kts | 277° |
| 2026-04-22 21:26 | 43.85092 | 51.23236 | 37964 ft | 411 kts | 277° |
| 2026-04-22 21:26 | 43.86091 | 51.15432 | 37965 ft | 411 kts | 277° |
| 2026-04-22 21:27 | 43.86378 | 51.07592 | 37963 ft | 406 kts | 263° |
| 2026-04-22 21:27 | 43.85279 | 50.99956 | 37960 ft | 404 kts | 250° |
| 2026-04-22 21:28 | 43.83193 | 50.92724 | 37962 ft | 404 kts | 248° |
| 2026-04-22 21:28 | 43.81082 | 50.85512 | 37956 ft | 404 kts | 248° |
| 2026-04-22 21:29 | 43.78961 | 50.78299 | 37957 ft | 404 kts | 248° |
| 2026-04-22 21:29 | 43.76828 | 50.71086 | 37947 ft | 405 kts | 248° |
| 2026-04-22 21:30 | 43.74689 | 50.63876 | 37948 ft | 405 kts | 248° |
| 2026-04-22 21:30 | 43.72561 | 50.56721 | 37948 ft | 405 kts | 247° |
| 2026-04-22 21:31 | 43.70407 | 50.49501 | 37950 ft | 406 kts | 247° |
| 2026-04-22 21:31 | 43.68251 | 50.42292 | 37951 ft | 405 kts | 247° |
| 2026-04-22 21:32 | 43.67188 | 50.38746 | 37905 ft | 393 kts | 247° |
| 2026-04-22 21:32 | 43.66158 | 50.35314 | 37759 ft | 380 kts | 247° |
| 2026-04-22 21:32 | 43.65158 | 50.31987 | 37491 ft | 371 kts | 247° |
| 2026-04-22 21:32 | 43.64175 | 50.28724 | 37225 ft | 366 kts | 248° |
| 2026-04-22 21:33 | 43.63193 | 50.25465 | 36957 ft | 369 kts | 248° |
| 2026-04-22 21:33 | 43.62204 | 50.22186 | 36689 ft | 369 kts | 248° |
| 2026-04-22 21:33 | 43.61231 | 50.18966 | 36431 ft | 366 kts | 248° |
| 2026-04-22 21:33 | 43.60255 | 50.15742 | 36169 ft | 362 kts | 248° |
| 2026-04-22 21:34 | 43.59289 | 50.12550 | 35915 ft | 359 kts | 248° |
| 2026-04-22 21:34 | 43.58326 | 50.09375 | 35666 ft | 357 kts | 248° |
| 2026-04-22 21:34 | 43.57368 | 50.06222 | 35417 ft | 355 kts | 248° |
| 2026-04-22 21:34 | 43.56419 | 50.03100 | 35134 ft | 351 kts | 248° |
| 2026-04-22 21:35 | 43.55477 | 50.00007 | 34749 ft | 348 kts | 248° |
| 2026-04-22 21:35 | 43.54542 | 49.96941 | 34328 ft | 344 kts | 248° |
| 2026-04-22 21:35 | 43.53618 | 49.93916 | 33916 ft | 341 kts | 248° |
| 2026-04-22 21:35 | 43.52703 | 49.90922 | 33438 ft | 337 kts | 248° |
| 2026-04-22 21:36 | 43.51805 | 49.87985 | 32963 ft | 334 kts | 248° |
| 2026-04-22 21:36 | 43.50906 | 49.85044 | 32497 ft | 331 kts | 248° |
| 2026-04-22 21:36 | 43.50013 | 49.82131 | 32034 ft | 329 kts | 248° |
| 2026-04-22 21:36 | 43.49128 | 49.79246 | 31579 ft | 326 kts | 248° |
| 2026-04-22 21:37 | 43.48247 | 49.76377 | 31128 ft | 323 kts | 248° |
| 2026-04-22 21:37 | 43.47375 | 49.73539 | 30698 ft | 321 kts | 248° |
| 2026-04-22 21:37 | 43.46507 | 49.70719 | 30265 ft | 318 kts | 248° |
| 2026-04-22 21:37 | 43.45646 | 49.67926 | 29801 ft | 316 kts | 248° |
| 2026-04-22 21:38 | 43.44790 | 49.65150 | 29357 ft | 313 kts | 248° |
| 2026-04-22 21:38 | 43.43944 | 49.62409 | 28902 ft | 309 kts | 248° |
| 2026-04-22 21:38 | 43.43106 | 49.59698 | 28465 ft | 306 kts | 248° |
| 2026-04-22 21:38 | 43.42286 | 49.57047 | 28035 ft | 303 kts | 248° |
| 2026-04-22 21:39 | 43.41463 | 49.54391 | 27613 ft | 301 kts | 248° |
| 2026-04-22 21:39 | 43.40648 | 49.51761 | 27203 ft | 298 kts | 248° |
| 2026-04-22 21:39 | 43.39838 | 49.49150 | 26786 ft | 295 kts | 248° |
| 2026-04-22 21:39 | 43.39035 | 49.46565 | 26380 ft | 293 kts | 248° |
| 2026-04-22 21:40 | 43.38238 | 49.44002 | 25982 ft | 290 kts | 248° |
| 2026-04-22 21:40 | 43.37447 | 49.41461 | 25602 ft | 287 kts | 248° |
| 2026-04-22 21:40 | 43.36663 | 49.38944 | 25229 ft | 285 kts | 248° |
| 2026-04-22 21:40 | 43.35885 | 49.36449 | 24843 ft | 283 kts | 248° |
| 2026-04-22 21:41 | 43.35112 | 49.33972 | 24478 ft | 281 kts | 248° |
| 2026-04-22 21:41 | 43.34347 | 49.31521 | 24115 ft | 278 kts | 248° |
| 2026-04-22 21:41 | 43.33586 | 49.29089 | 23758 ft | 276 kts | 248° |
| 2026-04-22 21:41 | 43.32829 | 49.26669 | 23404 ft | 274 kts | 248° |
| 2026-04-22 21:42 | 43.32079 | 49.24275 | 22971 ft | 272 kts | 248° |
| 2026-04-22 21:42 | 43.31341 | 49.21923 | 22571 ft | 270 kts | 247° |
| 2026-04-22 21:42 | 43.30600 | 49.19562 | 22165 ft | 269 kts | 247° |
| 2026-04-22 21:42 | 43.29862 | 49.17210 | 21768 ft | 267 kts | 247° |
| 2026-04-22 21:43 | 43.29130 | 49.14881 | 21374 ft | 265 kts | 247° |
| 2026-04-22 21:43 | 43.28400 | 49.12562 | 20987 ft | 263 kts | 247° |
| 2026-04-22 21:43 | 43.27675 | 49.10260 | 20611 ft | 262 kts | 247° |
| 2026-04-22 21:43 | 43.26954 | 49.07974 | 20239 ft | 260 kts | 247° |
| 2026-04-22 21:44 | 43.26237 | 49.05703 | 19878 ft | 259 kts | 247° |
| 2026-04-22 21:44 | 43.25524 | 49.03445 | 19507 ft | 257 kts | 247° |
| 2026-04-22 21:44 | 43.24813 | 49.01197 | 19143 ft | 256 kts | 247° |
| 2026-04-22 21:44 | 43.24105 | 48.98960 | 18783 ft | 255 kts | 247° |
| 2026-04-22 21:45 | 43.23400 | 48.96732 | 18420 ft | 254 kts | 247° |
| 2026-04-22 21:45 | 43.22705 | 48.94540 | 18059 ft | 253 kts | 247° |
| 2026-04-22 21:45 | 43.22005 | 48.92336 | 17661 ft | 252 kts | 247° |
| 2026-04-22 21:45 | 43.21301 | 48.90118 | 17100 ft | 257 kts | 247° |
| 2026-04-22 21:46 | 43.20582 | 48.87855 | 16634 ft | 259 kts | 247° |
| 2026-04-22 21:46 | 43.19863 | 48.85595 | 16260 ft | 258 kts | 247° |
| 2026-04-22 21:46 | 43.19150 | 48.83356 | 15885 ft | 257 kts | 247° |
| 2026-04-22 21:46 | 43.18438 | 48.81120 | 15511 ft | 256 kts | 247° |
| 2026-04-22 21:47 | 43.17727 | 48.78892 | 15140 ft | 255 kts | 248° |
| 2026-04-22 21:47 | 43.17017 | 48.76665 | 14781 ft | 254 kts | 248° |
| 2026-04-22 21:47 | 43.16309 | 48.74449 | 14424 ft | 253 kts | 248° |
| 2026-04-22 21:47 | 43.15605 | 48.72244 | 14078 ft | 252 kts | 248° |
| 2026-04-22 21:48 | 43.14917 | 48.70093 | 13955 ft | 250 kts | 248° |
| 2026-04-22 21:48 | 43.14205 | 48.67866 | 13927 ft | 253 kts | 247° |
| 2026-04-22 21:48 | 43.13326 | 48.65780 | 13926 ft | 254 kts | 234° |
| 2026-04-22 21:48 | 43.12109 | 48.64061 | 13921 ft | 257 kts | 221° |
| 2026-04-22 21:49 | 43.10703 | 48.62522 | 13791 ft | 257 kts | 222° |
| 2026-04-22 21:49 | 43.09339 | 48.61008 | 13572 ft | 248 kts | 222° |
| 2026-04-22 21:49 | 43.08009 | 48.59515 | 13296 ft | 248 kts | 223° |
| 2026-04-22 21:49 | 43.06670 | 48.58006 | 13033 ft | 249 kts | 222° |
| 2026-04-22 21:50 | 43.05339 | 48.56508 | 12771 ft | 247 kts | 222° |
| 2026-04-22 21:50 | 43.04013 | 48.55019 | 12507 ft | 246 kts | 222° |
| 2026-04-22 21:50 | 43.02694 | 48.53539 | 12253 ft | 245 kts | 222° |
| 2026-04-22 21:50 | 43.01369 | 48.52053 | 12016 ft | 246 kts | 222° |
| 2026-04-22 21:51 | 43.00057 | 48.50583 | 11755 ft | 242 kts | 222° |
| 2026-04-22 21:51 | 42.98759 | 48.49129 | 11504 ft | 242 kts | 221° |
| 2026-04-22 21:51 | 42.97458 | 48.47673 | 11271 ft | 240 kts | 221° |
| 2026-04-22 21:52 | 42.94877 | 48.44785 | 10601 ft | 239 kts | 221° |
| 2026-04-22 21:52 | 42.93611 | 48.43370 | 10273 ft | 238 kts | 221° |
| 2026-04-22 21:52 | 42.92407 | 48.41844 | 9934 ft | 235 kts | 236° |
| 2026-04-22 21:52 | 42.91796 | 48.39806 | 9565 ft | 234 kts | 255° |
| 2026-04-22 21:53 | 42.91389 | 48.37651 | 9214 ft | 233 kts | 255° |
| 2026-04-22 21:53 | 42.90996 | 48.35566 | 9115 ft | 222 kts | 254° |
| 2026-04-22 21:53 | 42.90612 | 48.33562 | 8890 ft | 217 kts | 254° |
| 2026-04-22 21:53 | 42.90227 | 48.31574 | 8545 ft | 217 kts | 253° |
| 2026-04-22 21:54 | 42.89838 | 48.29578 | 8211 ft | 218 kts | 253° |
| 2026-04-22 21:54 | 42.89448 | 48.27585 | 7884 ft | 217 kts | 253° |
| 2026-04-22 21:54 | 42.89057 | 48.25587 | 7583 ft | 217 kts | 252° |
| 2026-04-22 21:54 | 42.88667 | 48.23595 | 7280 ft | 217 kts | 252° |
| 2026-04-22 21:55 | 42.88277 | 48.21608 | 6983 ft | 217 kts | 252° |
| 2026-04-22 21:55 | 42.87886 | 48.19615 | 6685 ft | 217 kts | 252° |
| 2026-04-22 21:55 | 42.87494 | 48.17623 | 6396 ft | 217 kts | 251° |
| 2026-04-22 21:55 | 42.87103 | 48.15637 | 6109 ft | 216 kts | 251° |
| 2026-04-22 21:56 | 42.86716 | 48.13673 | 6008 ft | 213 kts | 251° |
| 2026-04-22 21:56 | 42.86327 | 48.11715 | 6014 ft | 218 kts | 252° |
| 2026-04-22 21:56 | 42.85935 | 48.09727 | 6018 ft | 216 kts | 251° |
| 2026-04-22 21:56 | 42.85542 | 48.07741 | 6018 ft | 217 kts | 252° |
| 2026-04-22 21:57 | 42.85098 | 48.05787 | 5989 ft | 214 kts | 239° |
| 2026-04-22 21:57 | 42.84138 | 48.04330 | 5813 ft | 205 kts | 215° |
| 2026-04-22 21:57 | 42.83023 | 48.03193 | 5716 ft | 195 kts | 214° |
| 2026-04-22 21:57 | 42.81960 | 48.02117 | 5532 ft | 188 kts | 214° |
| 2026-04-22 21:58 | 42.80911 | 48.01051 | 5255 ft | 188 kts | 215° |
| 2026-04-22 21:58 | 42.79859 | 47.99974 | 4968 ft | 189 kts | 215° |
| 2026-04-22 21:58 | 42.78830 | 47.98914 | 4741 ft | 183 kts | 215° |
| 2026-04-22 21:58 | 42.77820 | 47.97875 | 4324 ft | 185 kts | 216° |
| 2026-04-22 21:59 | 42.76778 | 47.96810 | 3917 ft | 188 kts | 217° |
| 2026-04-22 21:59 | 42.75746 | 47.95755 | 3724 ft | 185 kts | 218° |
| 2026-04-22 21:59 | 42.74699 | 47.94678 | 3704 ft | 190 kts | 219° |
| 2026-04-22 21:59 | 42.73646 | 47.93595 | 3702 ft | 189 kts | 219° |
| 2026-04-22 22:00 | 42.72595 | 47.92512 | 3702 ft | 190 kts | 219° |
| 2026-04-22 22:00 | 42.71545 | 47.91429 | 3702 ft | 188 kts | 219° |
| 2026-04-22 22:00 | 42.70496 | 47.90347 | 3705 ft | 189 kts | 219° |
| 2026-04-22 22:00 | 42.69449 | 47.89264 | 3701 ft | 189 kts | 219° |
| 2026-04-22 22:01 | 42.68434 | 47.88221 | 3694 ft | 173 kts | 219° |
| 2026-04-22 22:01 | 42.67498 | 47.87260 | 3706 ft | 168 kts | 219° |
| 2026-04-22 22:01 | 42.66568 | 47.86301 | 3706 ft | 168 kts | 219° |
| 2026-04-22 22:01 | 42.65639 | 47.85343 | 3705 ft | 167 kts | 219° |
| 2026-04-22 22:02 | 42.64722 | 47.84398 | 3702 ft | 168 kts | 219° |
| 2026-04-22 22:02 | 42.63794 | 47.83441 | 3708 ft | 168 kts | 220° |
| 2026-04-22 22:02 | 42.63174 | 47.82173 | 3707 ft | 161 kts | 262° |
| 2026-04-22 22:02 | 42.63399 | 47.80733 | 3705 ft | 160 kts | 306° |
| 2026-04-22 22:03 | 42.64261 | 47.79800 | 3708 ft | 160 kts | 330° |
| 2026-04-22 22:03 | 42.65217 | 47.79099 | 3604 ft | 152 kts | 331° |
| 2026-04-22 22:03 | 42.66111 | 47.78412 | 3411 ft | 142 kts | 329° |
| 2026-04-22 22:03 | 42.66913 | 47.77753 | 3234 ft | 128 kts | 328° |
| 2026-04-22 22:04 | 42.67668 | 47.77116 | 3074 ft | 128 kts | 328° |
| 2026-04-22 22:04 | 42.68422 | 47.76479 | 2898 ft | 127 kts | 328° |
| 2026-04-22 22:04 | 42.69169 | 47.75847 | 2727 ft | 126 kts | 328° |
| 2026-04-22 22:04 | 42.69912 | 47.75218 | 2557 ft | 125 kts | 328° |
| 2026-04-22 22:05 | 42.70644 | 47.74598 | 2387 ft | 123 kts | 328° |
| 2026-04-22 22:05 | 42.71360 | 47.73992 | 2223 ft | 123 kts | 328° |
| 2026-04-22 22:05 | 42.72080 | 47.73381 | 2054 ft | 122 kts | 328° |
| 2026-04-22 22:05 | 42.72799 | 47.72772 | 1888 ft | 121 kts | 328° |
| 2026-04-22 22:06 | 42.73472 | 47.72202 | 1732 ft | 120 kts | 328° |
| 2026-04-22 22:06 | 42.74177 | 47.71604 | 1562 ft | 121 kts | 328° |
| 2026-04-22 22:06 | 42.74891 | 47.70999 | 1387 ft | 121 kts | 328° |
| 2026-04-22 22:06 | 42.75605 | 47.70394 | 1215 ft | 121 kts | 328° |
| 2026-04-22 22:07 | 42.76319 | 47.69788 | 1046 ft | 121 kts | 328° |
| 2026-04-22 22:07 | 42.77029 | 47.69185 | 882 ft | 121 kts | 328° |
| 2026-04-22 22:07 | 42.77744 | 47.68579 | 719 ft | 121 kts | 329° |
| 2026-04-22 22:07 | 42.78462 | 47.67971 | 561 ft | 122 kts | 329° |
| 2026-04-22 22:08 | 42.79176 | 47.67358 | 389 ft | 120 kts | 328° |
| 2026-04-22 22:08 | 42.79888 | 47.66757 | 237 ft | 121 kts | 328° |
| 2026-04-22 22:08 | 42.80608 | 47.66147 | 64 ft | 126 kts | 329° |
| 2026-04-22 22:08 | 42.81316 | 47.65548 | 17 ft | 101 kts | 329° |
| 2026-04-22 22:09 | 42.81746 | 47.65183 | 13 ft | 50 kts | 328° |
| 2026-04-22 22:09 | 42.81905 | 47.65097 | 13 ft | 11 kts | 33° |
| 2026-04-22 22:09 | 42.81949 | 47.65166 | 15 ft | 7 kts | 87° |
| 2026-04-22 22:09 | 42.81969 | 47.65232 | 15 ft | 9 kts | 60° |
| 2026-04-22 22:10 | 42.81996 | 47.65290 | 14 ft | 0 kts | 54° |
| 2026-04-22 22:10 | 42.82004 | 47.65305 | 14 ft | 4 kts | 54° |
| 2026-04-22 22:10 | 42.82026 | 47.65348 | 14 ft | 7 kts | 57° |
| 2026-04-22 22:10 | 42.82029 | 47.65412 | 14 ft | 3 kts | 135° |
| 2026-04-22 22:11 | 42.82002 | 47.65431 | 15 ft | 6 kts | 152° |
| 2026-04-22 22:11 | 42.81962 | 47.65471 | 15 ft | 8 kts | 119° |
| 2026-04-22 22:11 | 42.81971 | 47.65491 | 15 ft | 2 kts | 16° |
| 2026-04-22 22:11 | 42.81990 | 47.65514 | 15 ft | 4 kts | 53° |
| 2026-04-22 22:12 | 42.81999 | 47.65532 | 15 ft | 1 kts | 57° |
| 2026-04-22 22:12 | 42.82001 | 47.65537 | 15 ft | 0 kts | 56° |